Time;durP1;ratioP1;P1;durP2;ratioP2;P2;SDS_P1;SDS_P2;PMS_P1;PMS_P2;Temp;Humidity;BMP_temperature;BMP_pressure;BME280_temperature;BME280_humidity;BME280_pressure;Samples;Min_cycle;Max_cycle;Signal;HPM_P1;HPM_P2
2022/03/19 00:02:31;;;;;;;5.80;3.17;;;4.00;99.90;;;;;;4995673;28;20237;-76
2022/03/19 00:04:57;;;;;;;8.97;3.93;;;4.00;99.90;;;;;;4962749;28;20172;-75
2022/03/19 00:07:23;;;;;;;6.27;3.30;;;4.00;99.90;;;;;;4978771;28;20183;-76
2022/03/19 00:09:48;;;;;;;7.47;2.80;;;4.00;99.90;;;;;;4978512;28;20175;-76
2022/03/19 00:12:14;;;;;;;8.63;4.00;;;4.00;99.90;;;;;;4961937;28;20178;-75
2022/03/19 00:14:44;;;;;;;6.87;3.63;;;4.00;99.90;;;;;;4994869;28;20175;-75
2022/03/19 00:17:10;;;;;;;8.63;3.57;;;4.00;99.90;;;;;;5009884;28;20180;-75
2022/03/19 00:19:38;;;;;;;11.13;4.37;;;4.10;99.90;;;;;;4962347;28;20187;-75
2022/03/19 00:22:04;;;;;;;6.93;3.20;;;4.10;99.90;;;;;;4978375;28;20211;-76
2022/03/19 00:24:29;;;;;;;7.90;3.37;;;4.20;99.90;;;;;;4962548;28;20178;-76
2022/03/19 00:26:55;;;;;;;7.63;3.30;;;4.30;99.90;;;;;;4994677;28;20178;-76
2022/03/19 00:29:21;;;;;;;4.93;2.37;;;4.30;99.90;;;;;;4977043;28;20191;-75
2022/03/19 00:31:47;;;;;;;4.67;2.30;;;4.30;99.90;;;;;;4962149;28;20183;-76
2022/03/19 00:34:13;;;;;;;5.03;2.50;;;4.20;99.90;;;;;;4978192;28;20296;-76
2022/03/19 00:36:39;;;;;;;4.37;2.70;;;4.00;99.90;;;;;;4978161;28;20343;-76
2022/03/19 00:39:04;;;;;;;4.80;2.77;;;3.50;99.90;;;;;;4978300;28;20296;-75
2022/03/19 00:41:30;;;;;;;3.53;2.40;;;3.50;99.90;;;;;;4961865;28;20183;-75
2022/03/19 00:43:55;;;;;;;5.80;3.00;;;3.40;99.90;;;;;;4994019;28;20196;-75
2022/03/19 00:46:22;;;;;;;6.07;3.70;;;3.50;99.90;;;;;;4961726;28;20180;-75
2022/03/19 00:48:48;;;;;;;5.37;3.07;;;3.50;99.90;;;;;;4978172;28;20185;-76
2022/03/19 00:51:13;;;;;;;6.93;3.40;;;3.60;99.90;;;;;;4977982;28;20179;-76
2022/03/19 00:53:39;;;;;;;7.70;3.20;;;3.60;99.90;;;;;;4993769;28;20258;-76
2022/03/19 00:59:26;;;;;;;7.07;3.67;;;3.70;99.90;;;;;;4994929;28;20523;-75
2022/03/19 01:01:52;;;;;;;4.07;2.43;;;3.80;99.90;;;;;;4993544;28;20207;-76
2022/03/19 01:04:17;;;;;;;6.93;2.40;;;3.80;99.90;;;;;;4961304;28;20623;-75
2022/03/19 01:06:43;;;;;;;4.43;2.40;;;3.60;99.90;;;;;;4977385;28;20190;-75
2022/03/19 01:09:09;;;;;;;4.67;2.37;;;3.50;99.90;;;;;;4961375;28;20182;-75
2022/03/19 01:11:34;;;;;;;3.60;2.30;;;3.50;99.90;;;;;;4977296;28;20172;-76
2022/03/19 01:14:00;;;;;;;4.27;2.27;;;3.50;99.90;;;;;;4961097;28;20217;-75
2022/03/19 01:16:26;;;;;;;4.97;2.40;;;3.40;99.90;;;;;;4961512;28;20554;-76
2022/03/19 01:18:52;;;;;;;4.20;2.00;;;3.30;99.90;;;;;;4977563;28;20205;-75
2022/03/19 01:21:18;;;;;;;4.60;2.23;;;3.30;99.90;;;;;;4960976;28;20682;-76
2022/03/19 01:23:44;;;;;;;4.57;2.30;;;3.30;99.90;;;;;;4977345;28;20275;-75
2022/03/19 01:26:09;;;;;;;4.47;2.50;;;3.40;99.90;;;;;;4993546;28;20179;-75
2022/03/19 01:28:35;;;;;;;5.20;2.50;;;3.50;99.90;;;;;;4993199;28;20265;-75
2022/03/19 01:31:02;;;;;;;6.37;2.40;;;3.40;99.90;;;;;;4993019;28;20174;-75
2022/03/19 01:33:28;;;;;;;5.03;2.27;;;3.50;99.90;;;;;;4993248;28;20202;-75
2022/03/19 01:35:54;;;;;;;4.00;2.30;;;3.50;99.90;;;;;;4977319;28;20179;-75
2022/03/19 01:38:19;;;;;;;4.00;2.40;;;3.50;99.90;;;;;;4993040;28;20185;-76
2022/03/19 01:40:45;;;;;;;5.90;2.67;;;3.50;99.90;;;;;;4960524;28;20277;-75
2022/03/19 01:43:10;;;;;;;4.70;2.50;;;3.30;99.90;;;;;;4992900;28;20248;-75
2022/03/19 01:45:36;;;;;;;8.17;2.63;;;3.20;99.90;;;;;;4960583;28;20198;-76
2022/03/19 01:48:02;;;;;;;3.97;2.37;;;3.20;99.90;;;;;;4960929;28;20183;-75
2022/03/19 01:50:28;;;;;;;4.27;2.20;;;3.10;99.90;;;;;;4994104;28;20173;-75
2022/03/19 01:52:55;;;;;;;7.23;2.50;;;3.10;99.90;;;;;;4992902;28;20202;-76
2022/03/19 01:55:45;;;;;;;3.70;2.20;;;3.10;99.90;;;;;;4976726;28;20191;-75
2022/03/19 01:58:11;;;;;;;3.80;2.70;;;3.20;99.90;;;;;;4992614;28;20179;-75
2022/03/19 02:00:37;;;;;;;6.47;2.80;;;3.30;99.90;;;;;;4960553;28;20191;-75
2022/03/19 02:03:05;;;;;;;2.87;2.10;;;3.30;99.90;;;;;;4976129;28;20206;-75
2022/03/19 02:05:30;;;;;;;4.10;2.10;;;3.40;99.90;;;;;;4976583;28;20189;-75
2022/03/19 02:07:56;;;;;;;5.83;2.67;;;3.40;99.90;;;;;;4976386;28;20190;-76
2022/03/19 02:10:23;;;;;;;6.43;2.43;;;3.50;99.90;;;;;;4960472;28;20193;-75
2022/03/19 02:12:50;;;;;;;5.07;2.30;;;3.50;99.90;;;;;;4992271;28;20273;-75
2022/03/19 02:15:15;;;;;;;3.53;2.30;;;3.60;99.90;;;;;;4992367;28;20209;-75
2022/03/19 02:17:42;;;;;;;5.43;2.60;;;3.50;99.90;;;;;;4976375;28;20187;-75
2022/03/19 02:20:09;;;;;;;4.67;2.60;;;3.50;99.90;;;;;;4992611;28;20183;-75
2022/03/19 02:22:35;;;;;;;3.57;2.50;;;3.30;99.90;;;;;;4992098;28;20294;-75
2022/03/19 02:27:45;;;;;;;3.93;2.63;;;3.00;99.90;;;;;;4979067;28;20180;-75
2022/03/19 02:30:12;;;;;;;4.00;2.23;;;2.90;99.90;;;;;;4992173;28;20183;-75
2022/03/19 02:32:44;;;;;;;3.73;2.43;;;2.80;99.90;;;;;;4991866;28;20214;-75
2022/03/19 02:35:10;;;;;;;5.40;2.40;;;2.90;99.90;;;;;;4992336;28;20187;-75
2022/03/19 02:37:44;;;;;;;3.73;2.50;;;2.90;99.90;;;;;;4976041;28;20182;-75
2022/03/19 02:40:14;;;;;;;4.67;2.60;;;3.00;99.90;;;;;;4992452;28;20175;-75
2022/03/19 02:42:40;;;;;;;5.03;2.23;;;3.10;99.90;;;;;;4976449;28;20206;-75
2022/03/19 02:45:07;;;;;;;3.70;2.20;;;3.10;99.90;;;;;;4960169;28;20195;-75
2022/03/19 02:47:34;;;;;;;4.47;2.63;;;3.10;99.90;;;;;;4992412;28;20215;-76
2022/03/19 02:50:00;;;;;;;3.27;2.27;;;2.60;99.90;;;;;;4992070;28;20638;-75
2022/03/19 02:52:26;;;;;;;3.80;2.43;;;2.70;99.90;;;;;;4977931;28;20221;-76
2022/03/19 02:54:52;;;;;;;3.53;1.97;;;2.60;99.90;;;;;;4996154;28;20174;-76
2022/03/19 02:57:18;;;;;;;3.43;2.30;;;2.60;99.90;;;;;;4979984;28;20210;-75
2022/03/19 02:59:43;;;;;;;3.53;2.17;;;2.50;99.90;;;;;;4963646;28;20193;-75
2022/03/19 03:02:09;;;;;;;4.17;2.77;;;2.50;99.90;;;;;;4979548;28;20270;-75
2022/03/19 03:04:35;;;;;;;4.73;2.70;;;2.50;99.90;;;;;;4980097;28;20187;-75
2022/03/19 03:07:03;;;;;;;4.50;2.70;;;2.40;99.90;;;;;;4995919;28;20189;-75
2022/03/19 03:09:30;;;;;;;4.73;2.33;;;2.30;99.90;;;;;;4996937;28;20175;-76
2022/03/19 03:11:56;;;;;;;5.07;2.60;;;2.30;99.90;;;;;;4996701;28;20201;-75
2022/03/19 03:14:22;;;;;;;5.03;2.20;;;2.20;99.90;;;;;;4997142;28;20681;-76
2022/03/19 03:16:49;;;;;;;5.10;2.50;;;2.10;99.90;;;;;;4979450;28;20217;-76
2022/03/19 03:19:16;;;;;;;5.80;3.13;;;2.00;99.90;;;;;;4995712;28;20228;-76
2022/03/19 03:21:43;;;;;;;5.97;2.53;;;2.10;99.90;;;;;;4979523;28;20179;-76
2022/03/19 03:24:09;;;;;;;3.50;2.20;;;2.20;99.90;;;;;;4979357;28;20198;-76
2022/03/19 03:26:35;;;;;;;5.50;2.57;;;2.20;99.90;;;;;;4979596;28;20269;-76
2022/03/19 03:29:01;;;;;;;5.13;2.57;;;2.20;99.90;;;;;;4979399;28;20174;-76
2022/03/19 03:31:27;;;;;;;4.37;2.27;;;2.30;99.90;;;;;;4995183;28;20269;-76
2022/03/19 03:33:54;;;;;;;3.07;2.00;;;2.10;99.90;;;;;;4995277;28;20294;-76
2022/03/19 03:36:21;;;;;;;4.17;2.30;;;2.00;99.90;;;;;;4995306;28;20173;-76
2022/03/19 03:38:46;;;;;;;3.70;2.50;;;2.00;99.90;;;;;;4979427;28;20237;-76
2022/03/19 03:41:12;;;;;;;6.43;2.37;;;1.90;99.90;;;;;;4978832;28;20179;-76
2022/03/19 03:43:38;;;;;;;6.10;2.10;;;1.90;99.90;;;;;;4978757;28;20206;-76
2022/03/19 03:46:04;;;;;;;2.70;2.00;;;1.80;99.90;;;;;;4996303;28;20181;-76
2022/03/19 03:48:31;;;;;;;4.57;2.23;;;1.90;99.90;;;;;;4995093;28;20232;-76
2022/03/19 03:50:58;;;;;;;5.30;2.53;;;1.90;99.90;;;;;;4995150;28;20174;-76
2022/03/19 03:53:26;;;;;;;3.63;2.10;;;1.80;99.90;;;;;;4995041;28;20218;-76
2022/03/19 03:59:14;;;;;;;5.10;2.30;;;1.60;99.90;;;;;;4996170;28;20165;-76
2022/03/19 04:01:39;;;;;;;3.87;2.20;;;1.60;99.90;;;;;;4962423;28;20179;-76
2022/03/19 04:04:05;;;;;;;4.73;2.40;;;1.60;99.90;;;;;;4978424;28;20209;-76
2022/03/19 04:06:31;;;;;;;5.30;2.30;;;1.50;99.90;;;;;;4962796;28;20659;-76
2022/03/19 04:08:56;;;;;;;4.40;2.37;;;1.70;99.90;;;;;;4978545;28;20525;-76
2022/03/19 04:11:22;;;;;;;5.40;2.53;;;1.60;99.90;;;;;;4962454;28;20545;-76
2022/03/19 04:13:47;;;;;;;3.53;2.40;;;1.60;99.90;;;;;;4978365;28;20213;-76
2022/03/19 04:16:13;;;;;;;3.10;2.17;;;1.80;99.90;;;;;;4962332;28;20175;-76
2022/03/19 04:18:38;;;;;;;4.23;2.60;;;1.60;99.90;;;;;;4962310;28;20559;-76
2022/03/19 04:21:04;;;;;;;3.87;2.23;;;1.50;99.90;;;;;;4962123;28;20268;-76
2022/03/19 04:23:30;;;;;;;3.37;2.07;;;1.40;99.90;;;;;;4977955;28;20225;-76
2022/03/19 04:25:55;;;;;;;4.43;2.47;;;1.20;99.90;;;;;;4978417;28;20274;-76
2022/03/19 04:28:21;;;;;;;4.77;2.57;;;1.30;99.90;;;;;;4978308;28;20182;-76
2022/03/19 04:30:47;;;;;;;4.27;2.70;;;1.20;99.90;;;;;;4978199;28;20184;-76
2022/03/19 04:33:19;;;;;;;5.30;2.50;;;1.10;99.90;;;;;;4977914;28;20244;-76
2022/03/19 04:38:28;;;;;;;4.90;2.70;;;1.10;99.90;;;;;;4994706;28;20173;-76
2022/03/19 04:40:54;;;;;;;4.80;2.80;;;1.10;99.90;;;;;;4962162;28;20176;-76
2022/03/19 04:43:20;;;;;;;4.87;2.40;;;1.10;99.90;;;;;;4961865;28;20200;-76
2022/03/19 04:45:46;;;;;;;5.50;2.73;;;1.00;99.90;;;;;;4994043;28;20237;-76
2022/03/19 04:48:12;;;;;;;6.77;3.30;;;1.00;99.90;;;;;;4994038;28;20177;-76
2022/03/19 04:50:39;;;;;;;6.13;2.90;;;0.90;99.90;;;;;;4993847;28;20180;-76
2022/03/19 04:53:06;;;;;;;3.63;2.43;;;0.90;99.90;;;;;;4961366;28;20212;-76
2022/03/19 04:56:01;;;;;;;4.83;2.63;;;1.00;99.90;;;;;;4993679;28;20229;-76
2022/03/19 04:58:26;;;;;;;3.97;2.40;;;1.00;99.90;;;;;;4993818;28;20180;-76
2022/03/19 05:00:52;;;;;;;5.50;2.80;;;1.10;99.90;;;;;;4977502;28;20179;-76
2022/03/19 05:03:17;;;;;;;4.27;2.73;;;0.90;99.90;;;;;;4994808;28;20196;-76
2022/03/19 05:05:43;;;;;;;6.47;2.70;;;1.00;99.90;;;;;;4993884;28;20196;-76
2022/03/19 05:08:09;;;;;;;4.40;2.73;;;1.00;99.90;;;;;;4993754;28;20318;-76
2022/03/19 05:13:18;;;;;;;4.07;2.40;;;1.00;99.90;;;;;;4993619;28;20226;-76
2022/03/19 05:15:44;;;;;;;5.63;3.00;;;1.10;99.90;;;;;;4960693;28;20185;-76
2022/03/19 05:18:10;;;;;;;5.47;3.10;;;1.00;99.90;;;;;;4961296;28;20219;-76
2022/03/19 05:20:36;;;;;;;5.13;3.03;;;1.10;99.90;;;;;;4961419;28;20278;-76
2022/03/19 05:23:02;;;;;;;6.93;3.60;;;1.10;99.90;;;;;;4977164;28;20204;-76
2022/03/19 05:25:28;;;;;;;7.77;3.60;;;1.20;99.90;;;;;;4961542;28;20183;-76
2022/03/19 05:27:53;;;;;;;7.37;3.57;;;1.60;99.90;;;;;;4977191;28;20249;-75
2022/03/19 05:30:19;;;;;;;7.50;3.73;;;1.80;99.90;;;;;;4993172;28;20394;-75
2022/03/19 05:32:45;;;;;;;8.90;3.70;;;2.00;99.90;;;;;;4976789;28;20306;-76
2022/03/19 05:35:11;;;;;;;7.13;3.90;;;2.00;99.90;;;;;;4993159;28;20623;-76
2022/03/19 05:37:36;;;;;;;6.97;3.50;;;2.10;99.90;;;;;;4977081;28;20203;-76
2022/03/19 05:40:06;;;;;;;6.20;3.30;;;2.10;99.90;;;;;;4976966;28;20176;-76
2022/03/19 05:42:32;;;;;;;5.90;3.60;;;2.20;99.90;;;;;;4992681;28;20672;-76
2022/03/19 05:44:58;;;;;;;6.43;3.77;;;2.30;99.90;;;;;;4992916;28;20184;-75
2022/03/19 05:47:24;;;;;;;5.80;3.37;;;2.40;99.90;;;;;;4993202;28;20184;-75
2022/03/19 05:49:50;;;;;;;6.27;3.23;;;2.40;99.90;;;;;;4977169;28;20665;-75
2022/03/19 05:52:16;;;;;;;6.17;3.03;;;2.80;99.90;;;;;;4960272;28;20294;-75
2022/03/19 05:54:42;;;;;;;6.67;3.70;;;3.10;99.90;;;;;;4976604;28;20262;-75
2022/03/19 05:57:19;;;;;;;4.60;3.17;;;3.60;99.90;;;;;;4992747;28;20176;-77
2022/03/19 05:59:44;;;;;;;8.10;3.37;;;4.10;99.90;;;;;;4992772;28;20645;-77
2022/03/19 06:02:10;;;;;;;7.37;3.53;;;4.50;99.90;;;;;;4992860;28;20181;-76
2022/03/19 06:04:35;;;;;;;8.00;3.37;;;4.30;99.90;;;;;;4956944;28;20199;-77
2022/03/19 06:07:02;;;;;;;7.20;3.53;;;3.90;99.90;;;;;;4973374;28;20185;-76
2022/03/19 06:09:28;;;;;;;6.13;3.63;;;3.40;99.90;;;;;;4957051;28;20192;-75
2022/03/19 06:11:53;;;;;;;8.43;4.10;;;3.00;99.90;;;;;;4956706;28;20214;-74
2022/03/19 06:14:19;;;;;;;7.17;3.97;;;2.90;99.90;;;;;;4973257;28;20231;-75
2022/03/19 06:16:45;;;;;;;6.07;3.53;;;2.80;99.90;;;;;;4973031;28;20328;-75
2022/03/19 06:19:11;;;;;;;9.80;4.30;;;2.80;99.90;;;;;;4957256;28;20177;-76
2022/03/19 06:21:40;;;;;;;8.07;4.17;;;2.80;99.90;;;;;;4972888;28;20186;-76
2022/03/19 06:24:07;;;;;;;7.37;3.90;;;2.80;99.90;;;;;;4972796;28;20196;-76
2022/03/19 06:26:33;;;;;;;6.17;3.80;;;2.90;99.90;;;;;;4973381;28;20176;-76
2022/03/19 06:28:59;;;;;;;8.23;4.43;;;3.00;99.90;;;;;;4972859;28;20179;-76
2022/03/19 06:31:25;;;;;;;8.83;4.77;;;3.00;99.90;;;;;;4972858;28;20188;-76
2022/03/19 06:33:51;;;;;;;9.13;4.80;;;3.00;99.90;;;;;;4956605;28;20220;-76
2022/03/19 06:39:00;;;;;;;9.50;4.97;;;3.10;99.90;;;;;;4974350;28;20179;-78
2022/03/19 06:41:26;;;;;;;10.23;4.90;;;3.20;99.90;;;;;;4972817;28;20559;-76
2022/03/19 06:43:52;;;;;;;9.27;4.97;;;3.20;99.90;;;;;;4956411;28;20251;-76
2022/03/19 06:46:18;;;;;;;12.73;5.80;;;3.30;99.90;;;;;;4972709;28;20232;-76
2022/03/19 06:48:46;;;;;;;11.30;6.40;;;3.30;99.90;;;;;;4956605;28;20247;-75
2022/03/19 06:51:12;;;;;;;12.30;5.90;;;3.30;99.90;;;;;;4956970;28;20184;-76
2022/03/19 06:53:38;;;;;;;11.80;6.30;;;3.40;99.90;;;;;;4972679;28;20221;-76
2022/03/19 06:56:38;;;;;;;13.47;6.30;;;3.40;99.90;;;;;;4973667;28;20178;-76
2022/03/19 06:59:03;;;;;;;10.83;5.73;;;3.50;99.90;;;;;;4972651;28;20181;-75
2022/03/19 07:01:29;;;;;;;13.00;6.60;;;3.60;99.90;;;;;;4972624;28;20193;-76
2022/03/19 07:03:55;;;;;;;12.43;6.17;;;3.60;99.90;;;;;;4972681;28;20633;-76
2022/03/19 07:06:21;;;;;;;10.80;6.60;;;3.70;99.90;;;;;;4972459;28;20209;-76
2022/03/19 07:08:46;;;;;;;13.60;6.13;;;3.70;99.90;;;;;;4973394;28;20193;-77
2022/03/19 07:11:12;;;;;;;10.63;6.43;;;3.80;99.90;;;;;;4975656;28;20197;-76
2022/03/19 07:13:38;;;;;;;11.13;6.67;;;3.90;99.90;;;;;;4991492;28;20217;-76
2022/03/19 07:16:06;;;;;;;11.43;6.47;;;4.00;99.90;;;;;;4975459;28;20265;-77
2022/03/19 07:18:32;;;;;;;10.20;5.80;;;4.10;99.90;;;;;;4975877;28;20190;-76
2022/03/19 07:20:57;;;;;;;13.40;6.80;;;4.20;99.90;;;;;;4975759;28;20186;-76
2022/03/19 07:23:23;;;;;;;11.23;6.37;;;4.20;99.90;;;;;;4975332;28;20298;-76
2022/03/19 07:25:49;;;;;;;12.77;6.70;;;4.30;99.90;;;;;;4959551;28;20201;-76
2022/03/19 07:28:17;;;;;;;9.80;6.67;;;4.40;99.90;;;;;;4991811;28;20206;-76
2022/03/19 07:30:43;;;;;;;11.53;6.70;;;4.50;99.90;;;;;;4959594;28;20212;-76
2022/03/19 07:33:11;;;;;;;10.87;6.63;;;4.50;99.90;;;;;;4992633;28;20577;-76
2022/03/19 07:35:41;;;;;;;11.60;7.07;;;4.60;99.90;;;;;;4991551;28;20171;-77
2022/03/19 07:38:09;;;;;;;11.47;7.17;;;4.70;99.90;;;;;;4976963;28;20718;-77
2022/03/19 07:43:19;;;;;;;12.53;7.20;;;4.90;99.90;;;;;;4981875;28;20226;-76
2022/03/19 07:45:45;;;;;;;12.30;6.30;;;5.10;99.90;;;;;;4995274;28;20175;-76
2022/03/19 07:48:11;;;;;;;12.37;7.00;;;5.20;99.90;;;;;;4995721;28;20182;-77
2022/03/19 07:50:54;;;;;;;14.87;7.00;;;5.30;99.90;;;;;;4978877;28;20555;-76
2022/03/19 07:53:20;;;;;;;10.43;6.87;;;5.40;99.90;;;;;;4978801;28;20444;-76
2022/03/19 07:55:45;;;;;;;10.17;6.93;;;5.50;99.90;;;;;;4994942;28;20202;-75
2022/03/19 07:58:11;;;;;;;10.53;7.30;;;5.60;99.90;;;;;;4994810;28;20257;-76
2022/03/19 08:00:37;;;;;;;10.93;6.50;;;5.80;99.90;;;;;;4978433;28;20180;-76
2022/03/19 08:03:03;;;;;;;12.57;6.77;;;6.00;99.90;;;;;;4994432;28;20200;-77
2022/03/19 08:05:28;;;;;;;13.97;7.27;;;6.10;99.90;;;;;;4994791;28;20203;-76
2022/03/19 08:07:54;;;;;;;11.60;6.87;;;6.20;99.90;;;;;;4962840;28;20274;-77
2022/03/19 08:10:20;;;;;;;9.47;6.13;;;6.40;99.90;;;;;;4995234;28;20661;-76
2022/03/19 08:12:45;;;;;;;11.83;5.40;;;6.50;99.90;;;;;;4978308;28;20339;-76
2022/03/19 08:15:12;;;;;;;9.30;5.77;;;6.60;99.90;;;;;;4995117;28;20626;-76
2022/03/19 08:17:38;;;;;;;8.43;5.30;;;6.70;99.90;;;;;;4974969;28;20709;-76
2022/03/19 08:20:08;;;;;;;6.87;4.67;;;6.80;99.90;;;;;;4959111;28;20557;-75
2022/03/19 08:22:35;;;;;;;10.07;5.27;;;7.00;99.90;;;;;;4975399;28;20205;-76
2022/03/19 08:25:01;;;;;;;5.97;3.70;;;7.10;99.90;;;;;;4975256;28;20217;-77
2022/03/19 08:27:27;;;;;;;6.13;3.43;;;7.20;99.90;;;;;;4962381;28;20187;-77
2022/03/19 08:29:53;;;;;;;7.53;3.30;;;7.30;99.90;;;;;;4994613;28;20180;-77
2022/03/19 08:32:20;;;;;;;6.13;3.10;;;7.30;99.90;;;;;;4978160;28;20209;-76
2022/03/19 08:34:46;;;;;;;5.63;3.63;;;7.30;99.90;;;;;;4978902;28;20181;-75
2022/03/19 08:37:12;;;;;;;9.00;3.70;;;7.30;99.90;;;;;;4978299;28;20188;-76
2022/03/19 08:42:22;;;;;;;9.63;4.27;;;7.50;99.90;;;;;;4980669;28;20180;-76
2022/03/19 08:44:48;;;;;;;5.70;3.70;;;7.60;99.90;;;;;;4978057;28;20182;-76
2022/03/19 08:47:14;;;;;;;23.03;10.27;;;7.70;99.90;;;;;;4994026;28;20186;-75
2022/03/19 08:49:48;;;;;;;37.53;13.73;;;7.80;99.90;;;;;;4976440;28;20198;-75
2022/03/19 08:52:13;;;;;;;24.43;9.50;;;7.80;99.90;;;;;;4977561;28;20215;-76
2022/03/19 08:54:39;;;;;;;166.60;57.53;;;7.90;99.90;;;;;;4977578;28;20561;-75
2022/03/19 08:57:04;;;;;;;12.03;5.93;;;7.90;99.90;;;;;;4977668;28;20212;-76
2022/03/19 08:59:30;;;;;;;12.13;6.03;;;8.10;99.90;;;;;;4977975;28;20542;-75
2022/03/19 09:01:56;;;;;;;18.70;7.87;;;8.20;99.90;;;;;;4977484;28;20191;-75
2022/03/19 09:04:21;;;;;;;13.13;5.23;;;8.40;99.90;;;;;;4977511;28;20275;-75
2022/03/19 09:06:48;;;;;;;43.03;16.70;;;8.40;99.90;;;;;;4993627;28;20191;-76
2022/03/19 09:09:14;;;;;;;8.20;3.23;;;8.60;99.90;;;;;;4977486;28;20245;-75
2022/03/19 09:11:41;;;;;;;5.13;3.33;;;8.60;99.90;;;;;;4977397;28;20183;-76
2022/03/19 09:14:07;;;;;;;4.83;2.60;;;8.60;99.90;;;;;;4993935;28;20290;-77
2022/03/19 09:16:34;;;;;;;8.17;4.10;;;8.70;99.90;;;;;;4994188;28;20180;-75
2022/03/19 09:19:00;;;;;;;51.53;18.53;;;8.70;99.90;;;;;;4994195;28;20657;-75
2022/03/19 09:21:29;;;;;;;5.87;2.77;;;8.80;99.90;;;;;;4993653;28;20225;-75
2022/03/19 09:23:55;;;;;;;5.33;2.80;;;8.90;99.90;;;;;;4977679;28;20205;-75
2022/03/19 09:26:21;;;;;;;32.53;12.57;;;9.00;99.90;;;;;;4977839;28;20187;-75
2022/03/19 09:28:47;;;;;;;8.33;4.80;;;8.90;99.90;;;;;;4977636;28;20243;-75
2022/03/19 09:31:14;;;;;;;5.60;2.87;;;9.00;99.90;;;;;;4977866;28;20548;-75
2022/03/19 09:33:40;;;;;;;12.80;6.10;;;9.10;99.90;;;;;;4974764;28;20240;-75
2022/03/19 09:36:06;;;;;;;5.67;2.53;;;9.20;99.90;;;;;;4990879;28;20172;-75
2022/03/19 09:38:31;;;;;;;4.07;2.83;;;9.30;99.90;;;;;;4974911;28;20275;-76
2022/03/19 09:40:58;;;;;;;9.60;4.70;;;9.20;99.90;;;;;;4990747;28;20180;-75
2022/03/19 09:43:25;;;;;;;5.10;3.20;;;9.40;99.90;;;;;;4991013;28;20206;-75
2022/03/19 09:45:51;;;;;;;5.93;3.37;;;9.50;99.90;;;;;;4974549;28;20651;-78
2022/03/19 09:48:17;;;;;;;4.63;2.87;;;9.70;99.90;;;;;;4990563;28;20660;-76
2022/03/19 09:50:43;;;;;;;13.40;6.30;;;9.90;99.90;;;;;;4958559;28;20187;-78
2022/03/19 09:53:09;;;;;;;7.33;3.23;;;9.80;99.90;;;;;;4974278;28;20722;-77
2022/03/19 09:55:38;;;;;;;12.30;6.00;;;10.10;99.90;;;;;;4990506;28;20233;-75
2022/03/19 09:58:05;;;;;;;5.20;3.27;;;10.40;99.90;;;;;;4990458;28;20181;-75
2022/03/19 10:00:31;;;;;;;7.47;3.53;;;10.60;99.90;;;;;;4974042;28;20181;-76
2022/03/19 10:02:57;;;;;;;3.57;2.80;;;10.50;99.90;;;;;;4990087;28;20286;-76
2022/03/19 10:08:57;;;;;;;7.40;3.33;;;10.30;99.90;;;;;;4993938;28;20217;-74
2022/03/19 10:11:27;;;;;;;6.30;3.20;;;10.30;99.90;;;;;;4992739;28;20175;-76
2022/03/19 10:13:53;;;;;;;5.43;3.43;;;10.30;99.90;;;;;;4992793;28;20534;-75
2022/03/19 10:16:19;;;;;;;6.90;3.90;;;10.40;99.90;;;;;;4960892;28;20175;-75
2022/03/19 10:18:54;;;;;;;4.33;2.90;;;10.60;99.90;;;;;;4992478;28;20175;-74
2022/03/19 10:21:20;;;;;;;3.53;2.70;;;10.80;99.90;;;;;;4992408;28;20163;-76
2022/03/19 10:23:46;;;;;;;6.47;3.17;;;11.00;99.90;;;;;;4976445;28;20199;-75
2022/03/19 10:26:26;;;;;;;16.50;8.00;;;10.90;99.90;;;;;;4976365;28;20184;-76
2022/03/19 10:29:01;;;;;;;10.33;4.90;;;11.00;99.90;;;;;;4992938;28;20176;-75
2022/03/19 10:31:43;;;;;;;7.40;3.70;;;10.80;99.90;;;;;;4992691;28;20649;-75
2022/03/19 10:34:09;;;;;;;6.53;3.70;;;10.80;99.90;;;;;;4977772;28;20210;-75
2022/03/19 10:36:40;;;;;;;4.30;2.57;;;10.70;99.90;;;;;;4992423;28;20203;-75
2022/03/19 10:39:18;;;;;;;4.10;2.50;;;10.70;99.90;;;;;;4992895;28;20200;-75
2022/03/19 10:41:44;;;;;;;6.93;4.33;;;10.30;99.10;;;;;;4992576;28;20183;-75
2022/03/19 10:44:19;;;;;;;5.40;2.50;;;10.20;99.90;;;;;;4992068;28;20231;-75
2022/03/19 10:46:50;;;;;;;6.67;2.77;;;10.40;99.90;;;;;;4960427;28;20236;-76
2022/03/19 10:49:17;;;;;;;19.93;9.30;;;10.70;99.90;;;;;;4992695;28;20186;-76
2022/03/19 10:51:44;;;;;;;3.83;2.23;;;10.90;99.90;;;;;;4959646;28;20672;-76
2022/03/19 10:54:11;;;;;;;6.63;2.73;;;10.90;99.90;;;;;;4992252;28;20551;-76
2022/03/19 10:56:37;;;;;;;4.73;2.00;;;11.00;99.90;;;;;;4991938;28;20171;-76
2022/03/19 10:59:03;;;;;;;2.80;1.63;;;10.60;96.50;;;;;;4992156;28;20225;-76
2022/03/19 11:01:31;;;;;;;3.77;1.90;;;10.60;96.40;;;;;;4991873;28;20248;-76
2022/03/19 11:04:01;;;;;;;7.50;3.17;;;10.60;96.80;;;;;;4975537;28;20231;-76
2022/03/19 11:06:31;;;;;;;5.93;2.73;;;10.60;97.60;;;;;;4965123;28;20190;-76
2022/03/19 11:09:01;;;;;;;2.67;1.60;;;10.70;99.90;;;;;;4960236;28;20191;-77
2022/03/19 11:11:35;;;;;;;4.10;2.10;;;11.00;98.20;;;;;;4976184;28;20632;-76
2022/03/19 11:14:02;;;;;;;2.67;1.73;;;11.10;97.10;;;;;;4995446;28;20223;-76
2022/03/19 11:16:34;;;;;;;4.07;1.90;;;11.40;96.90;;;;;;4979808;28;20184;-74
2022/03/19 11:19:02;;;;;;;3.73;2.10;;;11.40;95.60;;;;;;4995950;28;20169;-74
2022/03/19 11:21:30;;;;;;;5.60;1.90;;;11.60;98.40;;;;;;4996274;28;20187;-74
2022/03/19 11:24:22;;;;;;;6.53;3.73;;;11.60;95.20;;;;;;4995738;28;20213;-74
2022/03/19 11:26:49;;;;;;;12.23;4.50;;;11.90;97.90;;;;;;4996261;28;20637;-78
2022/03/19 11:29:16;;;;;;;13.23;6.10;;;12.10;99.90;;;;;;4979536;28;20183;-76
2022/03/19 11:31:43;;;;;;;3.80;2.40;;;12.40;94.00;;;;;;4979162;28;20665;-76
2022/03/19 11:34:17;;;;;;;3.87;2.30;;;12.10;91.50;;;;;;4964010;28;20211;-81
2022/03/19 11:37:04;;;;;;;10.43;4.57;;;12.40;95.80;;;;;;4963255;28;20175;-83
2022/03/19 11:39:29;;;;;;;6.50;3.43;;;12.40;95.00;;;;;;4996761;28;20623;-76
2022/03/19 11:41:55;;;;;;;14.13;5.83;;;12.30;94.50;;;;;;4978943;28;20318;-76
2022/03/19 11:44:26;;;;;;;3.80;2.03;;;12.20;99.90;;;;;;4978683;28;20203;-76
2022/03/19 11:47:06;;;;;;;2.90;2.10;;;12.00;92.20;;;;;;4963733;28;20191;-78
2022/03/19 11:49:49;;;;;;;3.63;2.00;;;12.10;94.30;;;;;;4995076;28;20168;-76
2022/03/19 11:52:17;;;;;;;4.03;1.73;;;11.90;92.50;;;;;;4995011;28;20707;-75
2022/03/19 11:55:19;;;;;;;3.33;2.00;;;11.90;92.50;;;;;;4979353;28;20180;-75
2022/03/19 11:58:03;;;;;;;3.43;1.47;;;11.90;90.90;;;;;;4968524;28;20616;-75
2022/03/19 12:00:38;;;;;;;11.27;4.80;;;11.80;90.10;;;;;;4979911;28;20219;-76
2022/03/19 12:03:12;;;;;;;2.87;1.70;;;11.90;97.80;;;;;;4978780;28;20289;-76
2022/03/19 12:05:48;;;;;;;2.97;1.60;;;11.80;89.90;;;;;;4995154;28;20200;-75
2022/03/19 12:12:13;;;;;;;3.97;1.77;;;11.60;89.60;;;;;;4996017;28;20593;-76
2022/03/19 12:14:40;;;;;;;4.17;2.07;;;12.00;88.70;;;;;;4994379;28;20175;-76
2022/03/19 12:17:16;;;;;;;2.83;1.60;;;11.70;85.90;;;;;;4994799;28;20180;-75
2022/03/19 12:20:00;;;;;;;3.40;1.40;;;11.80;86.90;;;;;;4995268;28;20179;-76
2022/03/19 12:22:39;;;;;;;2.20;1.50;;;11.80;87.60;;;;;;4995615;28;20646;-75
2022/03/19 12:25:11;;;;;;;3.83;1.87;;;11.80;88.10;;;;;;4993312;28;20179;-75
2022/03/19 12:27:38;;;;;;;80.07;32.73;;;12.30;89.00;;;;;;4994489;28;20283;-74
2022/03/19 12:30:06;;;;;;;3.70;1.90;;;12.80;96.60;;;;;;4995435;28;20210;-82
2022/03/19 12:32:57;;;;;;;4.27;1.80;;;13.10;88.50;;;;;;4961412;28;20212;-73
2022/03/19 12:35:37;;;;;;;8.53;3.50;;;13.40;90.30;;;;;;4993666;28;20171;-74
2022/03/19 12:38:03;;;;;;;5.63;1.60;;;13.10;98.50;;;;;;4994430;28;20178;-73
2022/03/19 12:43:22;;;;;;;4.53;1.47;;;12.00;83.80;;;;;;4994476;28;20705;-73
2022/03/19 12:45:49;;;;;;;2.70;1.67;;;11.40;84.00;;;;;;4994392;28;20180;-73
2022/03/19 12:48:20;;;;;;;2.20;1.27;;;11.80;91.10;;;;;;4995406;28;20180;-73
2022/03/19 12:50:55;;;;;;;2.27;1.27;;;12.00;85.90;;;;;;4978370;28;20175;-72
2022/03/19 12:53:38;;;;;;;2.80;1.30;;;12.20;80.00;;;;;;4977852;28;20215;-73
2022/03/19 12:56:15;;;;;;;1.63;1.10;;;12.10;80.40;;;;;;4993951;28;20204;-73
2022/03/19 12:58:43;;;;;;;2.27;1.27;;;12.60;82.80;;;;;;4978386;28;20552;-73
2022/03/19 13:01:23;;;;;;;2.93;1.40;;;12.90;83.70;;;;;;4977935;28;20176;-74
2022/03/19 13:03:57;;;;;;;2.63;1.20;;;12.60;78.30;;;;;;4977866;28;20269;-73
2022/03/19 13:06:28;;;;;;;2.90;1.43;;;12.60;79.10;;;;;;4994015;28;20655;-73
2022/03/19 13:08:57;;;;;;;2.33;1.30;;;12.90;78.60;;;;;;4977874;28;20245;-73
2022/03/19 13:11:23;;;;;;;3.47;1.10;;;12.90;82.00;;;;;;4993515;28;20258;-73
2022/03/19 13:13:48;;;;;;;3.83;1.40;;;12.30;85.40;;;;;;4993409;28;20674;-73
2022/03/19 13:16:32;;;;;;;2.53;1.50;;;11.80;91.10;;;;;;4961302;28;20171;-73
2022/03/19 13:19:03;;;;;;;4.10;1.33;;;11.70;93.50;;;;;;4977409;28;20183;-73
2022/03/19 13:21:30;;;;;;;2.20;1.20;;;12.10;94.20;;;;;;4961164;28;20647;-73
2022/03/19 13:23:58;;;;;;;2.40;1.30;;;11.80;92.50;;;;;;4977272;28;20223;-73
2022/03/19 13:26:26;;;;;;;3.47;1.70;;;11.70;93.90;;;;;;4978000;28;20176;-76
2022/03/19 13:29:09;;;;;;;2.53;1.40;;;11.80;94.90;;;;;;4977269;28;20238;-75
2022/03/19 13:31:49;;;;;;;3.77;1.40;;;11.60;94.90;;;;;;4976825;28;20183;-75